createdAt,value
2019-01-31T00:00:58.419Z,32.20
2019-01-31T00:05:01.223Z,33.00
2019-01-31T00:08:45.913Z,33.43
2019-01-31T00:12:49.411Z,34.20
2019-01-31T00:16:31.798Z,32.67
2019-01-31T00:20:36.224Z,32.23
2019-01-31T00:24:18.826Z,31.37
2019-01-31T00:27:56.872Z,32.53
2019-01-31T00:31:46.528Z,31.57
2019-01-31T00:35:26.682Z,31.87
2019-01-31T00:38:59.074Z,30.93
2019-01-31T00:42:43.058Z,30.77
2019-01-31T00:46:47.233Z,30.37
2019-01-31T00:50:28.858Z,30.27
2019-01-31T00:54:02.668Z,31.13
2019-01-31T00:57:42.706Z,30.70
2019-01-31T01:01:40.566Z,31.47
2019-01-31T01:05:29.098Z,31.97
2019-01-31T01:09:19.538Z,31.87
2019-01-31T01:13:38.386Z,31.80
2019-01-31T01:17:16.499Z,31.13
2019-01-31T01:21:20.576Z,30.57
2019-01-31T01:24:57.993Z,30.70
2019-01-31T01:28:48.402Z,29.73
2019-01-31T01:32:19.040Z,29.00
2019-01-31T01:36:01.124Z,28.83
2019-01-31T01:39:50.521Z,29.57
2019-01-31T01:43:50.648Z,29.30
2019-01-31T01:47:21.671Z,29.67
2019-01-31T01:51:30.411Z,28.23
2019-01-31T01:55:15.407Z,28.07
2019-01-31T01:58:48.060Z,29.57
2019-01-31T02:02:43.251Z,27.40
2019-01-31T02:06:17.846Z,28.47
2019-01-31T02:10:28.059Z,28.70
2019-01-31T02:14:13.700Z,26.97
2019-01-31T02:17:56.197Z,27.80
2019-01-31T02:21:41.748Z,27.57
2019-01-31T02:25:38.154Z,27.40
2019-01-31T02:29:27.567Z,27.33
2019-01-31T02:33:09.764Z,27.53
2019-01-31T02:36:39.362Z,26.07
2019-01-31T02:40:35.102Z,26.40
2019-01-31T02:44:18.471Z,25.90
2019-01-31T02:47:54.817Z,26.43
2019-01-31T02:51:42.940Z,27.40
2019-01-31T02:55:24.570Z,25.20
2019-01-31T02:58:52.415Z,26.07
2019-01-31T03:02:27.358Z,25.90
2019-01-31T03:06:33.649Z,26.30
2019-01-31T03:10:21.801Z,25.90
2019-01-31T03:14:09.907Z,25.37
2019-01-31T03:18:07.540Z,24.63
2019-01-31T03:22:07.718Z,26.77
2019-01-31T03:26:11.463Z,25.97
2019-01-31T03:30:05.206Z,25.37
2019-01-31T03:34:05.061Z,23.47
2019-01-31T03:37:59.098Z,23.47
2019-01-31T03:41:34.729Z,22.07
2019-01-31T03:45:23.515Z,25.17
2019-01-31T03:49:07.575Z,22.97
2019-01-31T03:52:41.605Z,24.53
2019-01-31T03:56:22.390Z,24.40
2019-01-31T03:59:54.421Z,25.47
2019-01-31T04:03:28.757Z,24.33
2019-01-31T04:06:51.250Z,24.03
2019-01-31T04:10:19.188Z,24.53
2019-01-31T04:13:37.630Z,24.67
2019-01-31T04:17:00.318Z,24.37
2019-01-31T04:20:22.887Z,25.83
2019-01-31T04:23:45.577Z,25.30
2019-01-31T04:27:08.110Z,25.43
2019-01-31T04:30:30.613Z,25.80
2019-01-31T04:33:53.059Z,23.93
2019-01-31T04:37:15.827Z,22.73
2019-01-31T04:40:38.302Z,25.43
2019-01-31T04:44:02.079Z,23.27
2019-01-31T04:47:24.253Z,23.73
2019-01-31T04:50:46.818Z,23.63
2019-01-31T04:54:09.401Z,23.27
2019-01-31T04:57:31.913Z,24.83
2019-01-31T05:00:54.558Z,23.57
2019-01-31T05:04:16.801Z,24.13
2019-01-31T05:07:39.467Z,22.33
2019-01-31T05:11:02.270Z,23.50
2019-01-31T05:14:25.070Z,22.67
2019-01-31T05:17:47.991Z,22.90
2019-01-31T05:21:10.818Z,21.03
2019-01-31T05:24:33.134Z,23.53
2019-01-31T05:27:55.885Z,23.43
2019-01-31T05:31:18.618Z,22.60
2019-01-31T05:34:41.278Z,22.23
2019-01-31T05:38:04.014Z,21.87
2019-01-31T05:41:26.792Z,22.07
2019-01-31T05:44:49.144Z,22.80
2019-01-31T05:48:11.682Z,23.87
2019-01-31T05:51:34.266Z,22.47
2019-01-31T05:54:56.704Z,21.97
2019-01-31T05:58:19.329Z,22.17
2019-01-31T06:01:41.813Z,23.00
2019-01-31T06:05:04.966Z,23.23
2019-01-31T06:08:27.300Z,22.03
2019-01-31T06:11:49.761Z,22.67
2019-01-31T06:15:14.114Z,22.43
2019-01-31T06:18:36.652Z,22.43
2019-01-31T06:21:59.166Z,23.20
2019-01-31T06:25:22.102Z,21.77
2019-01-31T06:28:45.010Z,22.17
2019-01-31T06:32:07.477Z,23.03
2019-01-31T06:35:29.889Z,21.83
2019-01-31T06:38:52.077Z,21.93
2019-01-31T06:42:14.282Z,23.53
2019-01-31T06:45:36.676Z,23.00
2019-01-31T06:48:59.218Z,21.20
2019-01-31T06:52:21.444Z,21.07
2019-01-31T06:55:44.297Z,22.27
2019-01-31T06:59:06.879Z,21.93
2019-01-31T07:02:29.514Z,22.97
2019-01-31T07:05:51.676Z,23.13
2019-01-31T07:09:14.253Z,22.67
2019-01-31T07:12:36.836Z,22.57
2019-01-31T07:15:59.080Z,22.60
2019-01-31T07:19:21.594Z,21.33
2019-01-31T07:22:43.852Z,22.03
2019-01-31T07:26:06.737Z,22.03
2019-01-31T07:29:29.124Z,23.07
2019-01-31T07:32:51.688Z,22.43
2019-01-31T07:36:14.353Z,22.80
2019-01-31T07:39:36.452Z,22.10
2019-01-31T07:42:58.864Z,23.23
2019-01-31T07:46:21.670Z,23.07
2019-01-31T07:49:43.830Z,21.97
2019-01-31T07:53:06.622Z,22.90
2019-01-31T07:56:29.247Z,23.27
2019-01-31T07:59:51.977Z,23.47
2019-01-31T08:03:14.305Z,24.33
2019-01-31T08:06:36.993Z,22.00
2019-01-31T08:09:59.413Z,24.00
2019-01-31T08:13:22.373Z,21.93
2019-01-31T08:16:45.190Z,21.73
2019-01-31T08:20:08.194Z,22.50
2019-01-31T08:23:30.608Z,22.57
2019-01-31T08:26:55.766Z,23.70
2019-01-31T08:30:23.170Z,23.27
2019-01-31T08:33:45.538Z,23.37
2019-01-31T08:37:08.014Z,23.83
2019-01-31T08:40:30.784Z,23.90
2019-01-31T08:43:53.488Z,22.90
2019-01-31T08:47:15.904Z,23.97
2019-01-31T08:50:38.802Z,25.87
2019-01-31T08:54:01.589Z,24.20
2019-01-31T08:57:23.965Z,24.33
2019-01-31T09:00:46.616Z,21.77
2019-01-31T09:04:08.922Z,23.13
2019-01-31T09:07:31.573Z,22.37
2019-01-31T09:10:54.407Z,22.70
2019-01-31T09:14:17.026Z,22.07
2019-01-31T09:17:39.443Z,22.33
2019-01-31T09:21:26.745Z,21.47
2019-01-31T09:25:06.373Z,21.37
2019-01-31T09:28:57.550Z,20.67
2019-01-31T09:32:52.545Z,21.00
2019-01-31T09:36:33.186Z,21.70
2019-01-31T09:40:34.444Z,20.63
2019-01-31T09:44:25.342Z,20.77
2019-01-31T09:48:37.386Z,20.50
2019-01-31T09:52:15.569Z,19.80
2019-01-31T09:56:04.493Z,20.77
2019-01-31T10:00:01.042Z,18.07
2019-01-31T10:03:58.669Z,18.30
2019-01-31T10:08:02.918Z,19.20
2019-01-31T10:11:58.303Z,18.27
2019-01-31T10:15:47.965Z,18.20
2019-01-31T10:20:07.301Z,17.97
2019-01-31T10:23:58.024Z,17.63
2019-01-31T10:28:04.604Z,18.73
2019-01-31T10:31:47.840Z,18.70
2019-01-31T10:35:43.457Z,16.50
2019-01-31T10:39:43.363Z,17.70
2019-01-31T10:43:34.967Z,16.30
2019-01-31T10:47:20.832Z,15.40
2019-01-31T10:51:07.754Z,17.23
2019-01-31T10:55:06.898Z,15.00
2019-01-31T10:59:16.263Z,14.67
2019-01-31T11:03:15.007Z,13.83
2019-01-31T11:07:22.877Z,15.17
2019-01-31T11:10:56.030Z,14.83
2019-01-31T11:14:43.249Z,15.83
2019-01-31T11:18:17.231Z,15.47
2019-01-31T11:22:00.739Z,16.07
2019-01-31T11:26:14.120Z,15.37
2019-01-31T11:30:09.812Z,14.57
2019-01-31T11:34:12.024Z,17.10
2019-01-31T11:38:14.972Z,15.10
2019-01-31T11:42:11.730Z,16.20
2019-01-31T11:46:01.647Z,13.97
2019-01-31T11:50:07.672Z,14.97
2019-01-31T11:53:44.624Z,14.27
2019-01-31T11:57:39.115Z,14.40
2019-01-31T12:01:01.931Z,13.60
2019-01-31T12:04:24.751Z,14.37
2019-01-31T12:07:47.058Z,13.47
2019-01-31T12:11:09.649Z,13.70
2019-01-31T12:14:32.442Z,14.60
2019-01-31T12:17:55.024Z,14.57
2019-01-31T12:21:17.416Z,14.13
2019-01-31T12:24:39.655Z,12.77
2019-01-31T12:28:02.078Z,13.03
2019-01-31T12:31:24.741Z,13.40
2019-01-31T12:34:47.006Z,13.93
2019-01-31T12:38:09.584Z,13.33
2019-01-31T12:41:32.329Z,15.13
2019-01-31T12:44:54.713Z,13.43
2019-01-31T12:48:17.364Z,13.17
2019-01-31T12:51:39.841Z,11.90
2019-01-31T12:55:02.709Z,12.87
2019-01-31T12:58:33.263Z,12.03
2019-01-31T13:01:50.715Z,12.57
2019-01-31T13:05:13.692Z,12.97
2019-01-31T13:08:36.634Z,12.43
2019-01-31T13:11:59.226Z,12.43
2019-01-31T13:15:22.077Z,12.03
2019-01-31T13:18:44.497Z,12.10
2019-01-31T13:22:07.303Z,12.10
2019-01-31T13:25:30.542Z,12.50
2019-01-31T13:28:52.722Z,11.30
2019-01-31T13:32:15.104Z,11.80
2019-01-31T13:35:37.698Z,12.43
2019-01-31T13:39:00.047Z,16.00
2019-01-31T13:42:22.917Z,12.50
2019-01-31T13:45:45.658Z,12.30
2019-01-31T13:49:08.067Z,13.33
2019-01-31T13:52:30.623Z,13.13
2019-01-31T13:55:53.496Z,12.47
2019-01-31T13:59:16.207Z,12.27
2019-01-31T14:02:38.355Z,11.87
2019-01-31T14:06:00.898Z,12.70
2019-01-31T14:09:23.393Z,12.73
2019-01-31T14:12:45.605Z,11.90
2019-01-31T14:16:08.399Z,12.53
2019-01-31T14:19:30.525Z,12.23
2019-01-31T14:22:53.704Z,11.67
2019-01-31T14:26:16.463Z,11.83
2019-01-31T14:29:39.239Z,11.80
2019-01-31T14:33:02.431Z,12.57
2019-01-31T14:36:24.773Z,12.63
2019-01-31T14:39:47.438Z,12.03
2019-01-31T14:43:09.725Z,13.73
2019-01-31T14:46:32.336Z,12.20
2019-01-31T14:49:54.965Z,12.30
2019-01-31T14:53:17.293Z,12.63
2019-01-31T14:56:39.918Z,12.03
2019-01-31T15:00:02.345Z,13.60
2019-01-31T15:03:24.419Z,13.80
2019-01-31T15:06:47.020Z,12.87
2019-01-31T15:10:12.604Z,13.97
2019-01-31T15:13:35.361Z,13.17
2019-01-31T15:16:57.870Z,13.70
2019-01-31T15:20:37.732Z,12.40
2019-01-31T15:23:53.413Z,12.07
2019-01-31T15:27:16.226Z,13.20
2019-01-31T15:30:38.769Z,12.17
2019-01-31T15:34:01.245Z,12.20
2019-01-31T15:37:23.694Z,12.73
2019-01-31T15:40:48.415Z,12.10
2019-01-31T15:44:11.276Z,13.00
2019-01-31T15:47:33.911Z,11.43
2019-01-31T15:50:56.496Z,11.87
2019-01-31T15:54:19.059Z,11.80
2019-01-31T15:57:41.920Z,12.47
2019-01-31T16:01:05.334Z,11.37
2019-01-31T16:04:27.917Z,11.57
2019-01-31T16:07:51.386Z,11.73
2019-01-31T16:11:14.152Z,10.83
2019-01-31T16:14:37.008Z,12.37
2019-01-31T16:17:59.453Z,12.30
2019-01-31T16:21:21.858Z,12.30
2019-01-31T16:24:44.566Z,13.57
2019-01-31T16:28:07.223Z,11.90
2019-01-31T16:31:29.934Z,13.63
2019-01-31T16:34:52.549Z,13.90
2019-01-31T16:38:15.367Z,12.47
2019-01-31T16:41:37.855Z,13.13
2019-01-31T16:45:06.949Z,13.43
2019-01-31T16:48:24.557Z,13.77
2019-01-31T16:51:47.634Z,14.67
2019-01-31T16:55:12.753Z,14.90
2019-01-31T16:58:35.168Z,15.43
2019-01-31T17:01:58.053Z,15.77
2019-01-31T17:05:23.089Z,15.40
2019-01-31T17:08:45.519Z,14.93
2019-01-31T17:12:07.835Z,17.80
2019-01-31T17:15:30.422Z,18.37
2019-01-31T17:18:54.969Z,18.37
2019-01-31T17:22:17.448Z,19.47
2019-01-31T17:25:40.025Z,18.17
2019-01-31T17:29:02.255Z,18.53
2019-01-31T17:32:24.597Z,19.27
2019-01-31T17:35:47.261Z,21.67
2019-01-31T17:39:10.458Z,20.43
2019-01-31T17:42:33.258Z,20.13
2019-01-31T17:45:56.173Z,21.57
2019-01-31T17:49:18.737Z,22.10
2019-01-31T17:52:41.739Z,22.33
2019-01-31T17:56:04.666Z,22.00
2019-01-31T17:59:27.447Z,20.77
2019-01-31T18:02:50.089Z,21.37
2019-01-31T18:06:12.348Z,21.80
2019-01-31T18:09:34.829Z,21.70
2019-01-31T18:12:57.523Z,22.17
2019-01-31T18:16:20.152Z,22.60
2019-01-31T18:19:42.592Z,21.57
2019-01-31T18:23:05.297Z,22.83
2019-01-31T18:26:28.062Z,23.83
2019-01-31T18:29:50.727Z,24.10
2019-01-31T18:33:12.931Z,22.70
2019-01-31T18:36:35.613Z,23.67
2019-01-31T18:39:57.977Z,24.57
2019-01-31T18:43:20.502Z,24.83
2019-01-31T18:46:43.022Z,26.50
2019-01-31T18:50:08.525Z,25.53
2019-01-31T18:53:30.746Z,25.57
2019-01-31T18:56:53.311Z,26.70
2019-01-31T19:00:30.575Z,27.00
2019-01-31T19:03:53.160Z,27.90
2019-01-31T19:07:15.653Z,27.20
2019-01-31T19:10:43.179Z,30.47
2019-01-31T19:14:02.153Z,27.97
2019-01-31T19:17:24.377Z,29.03
2019-01-31T19:20:47.106Z,28.10
2019-01-31T19:24:09.464Z,28.70
2019-01-31T19:27:31.921Z,27.97
2019-01-31T19:30:54.557Z,27.80
2019-01-31T19:34:17.246Z,27.17
2019-01-31T19:37:39.862Z,27.20
2019-01-31T19:41:02.693Z,27.33
2019-01-31T19:44:25.651Z,27.17
2019-01-31T19:47:48.763Z,28.83
2019-01-31T19:51:11.380Z,29.33
2019-01-31T19:54:33.957Z,29.80
2019-01-31T19:57:56.279Z,30.37
2019-01-31T20:01:18.382Z,29.90
2019-01-31T20:04:40.839Z,30.17
2019-01-31T20:08:03.859Z,31.23
2019-01-31T20:11:26.344Z,30.83
2019-01-31T20:14:48.783Z,30.77
2019-01-31T20:18:11.757Z,29.70
2019-01-31T20:21:34.129Z,31.43
2019-01-31T20:24:56.733Z,30.47
2019-01-31T20:28:19.135Z,31.87
2019-01-31T20:31:41.525Z,31.80
2019-01-31T20:35:06.537Z,31.43
2019-01-31T20:38:29.157Z,31.83
2019-01-31T20:41:54.267Z,33.10
2019-01-31T20:45:16.230Z,30.20
2019-01-31T20:48:38.721Z,32.43
2019-01-31T20:52:01.553Z,31.27
2019-01-31T20:55:24.353Z,33.83
2019-01-31T20:58:46.825Z,35.77
2019-01-31T21:02:09.295Z,32.40
2019-01-31T21:05:32.180Z,34.73
2019-01-31T21:08:54.619Z,33.50
2019-01-31T21:12:16.896Z,36.23
2019-01-31T21:15:39.741Z,35.77
2019-01-31T21:19:02.534Z,35.30
2019-01-31T21:22:25.001Z,36.30
2019-01-31T21:25:47.631Z,37.13
2019-01-31T21:29:10.123Z,38.17
2019-01-31T21:32:32.645Z,39.07
2019-01-31T21:35:55.293Z,38.50
2019-01-31T21:39:17.825Z,38.10
2019-01-31T21:42:40.367Z,39.30
2019-01-31T21:46:03.113Z,40.60
2019-01-31T21:49:25.615Z,40.40
2019-01-31T21:52:48.689Z,41.67
2019-01-31T21:56:11.579Z,39.93
2019-01-31T21:59:34.379Z,42.27
2019-01-31T22:02:57.000Z,40.77
2019-01-31T22:06:22.534Z,41.33
2019-01-31T22:09:43.770Z,42.60
2019-01-31T22:13:06.153Z,44.13
2019-01-31T22:16:28.736Z,41.47
2019-01-31T22:19:51.441Z,44.00
2019-01-31T22:23:13.997Z,44.10
2019-01-31T22:26:36.971Z,43.67
2019-01-31T22:29:59.394Z,42.17
2019-01-31T22:33:21.559Z,44.83
2019-01-31T22:36:43.615Z,43.93
2019-01-31T22:40:17.245Z,40.77
2019-01-31T22:43:39.695Z,43.00
2019-01-31T22:47:02.203Z,44.40
2019-01-31T22:50:25.532Z,43.67
2019-01-31T22:53:48.263Z,42.43
2019-01-31T22:57:10.426Z,42.87
2019-01-31T23:01:11.548Z,46.63
2019-01-31T23:04:33.980Z,42.97
2019-01-31T23:07:56.749Z,45.57
2019-01-31T23:11:19.221Z,46.50
2019-01-31T23:14:41.784Z,49.47
2019-01-31T23:18:04.477Z,47.77
2019-01-31T23:21:27.298Z,46.07
2019-01-31T23:24:49.909Z,46.13
2019-01-31T23:28:12.477Z,46.70
2019-01-31T23:31:35.093Z,46.70
2019-01-31T23:34:57.718Z,47.93
2019-01-31T23:38:20.294Z,45.97
2019-01-31T23:41:42.920Z,46.90
2019-01-31T23:45:09.273Z,48.43
2019-01-31T23:48:32.006Z,49.27
2019-01-31T23:51:54.413Z,48.73
2019-01-31T23:55:17.390Z,49.47
2019-01-31T23:58:40.149Z,46.53
